Time,TemperatureF,DewpointF,PressureIn,WindDirection,WindDirectionDegrees,WindSpeedMPH,WindSpeedGustMPH,Humidity,HourlyPrecipIn,Conditions,Clouds,dailyrainin,SoftwareType,DateUTC
2013-07-03 00:05:00,63.5,60.2,29.93,SW,225,2.2,-999.0,89,-99.99,,,0.00,Acu-Link.com,2013-07-03 05:05:00,
2013-07-03 00:20:00,62.8,60.1,29.93,WNW,292,0.0,-999.0,91,-99.99,,,0.00,Acu-Link.com,2013-07-03 05:20:00,
2013-07-03 00:35:00,62.1,59.4,29.93,SW,225,2.2,-999.0,91,-99.99,,,0.00,Acu-Link.com,2013-07-03 05:35:00,
2013-07-03 01:05:00,61.2,59.5,29.93,SW,225,1.1,-999.0,94,-99.99,,,0.00,Acu-Link.com,2013-07-03 06:05:00,
2013-07-03 01:36:00,59.5,58.1,29.93,SSE,157,0.0,-999.0,95,-99.99,,,0.00,Acu-Link.com,2013-07-03 06:36:00,
2013-07-03 02:21:00,59.0,58.4,29.93,SSW,202,1.1,-999.0,98,-99.99,,,0.00,Acu-Link.com,2013-07-03 07:21:00,
2013-07-03 02:36:00,59.0,58.4,29.94,South,180,1.7,-999.0,98,-99.99,,,0.00,Acu-Link.com,2013-07-03 07:36:00,
2013-07-03 02:51:00,58.8,58.2,29.94,ESE,112,0.0,-999.0,98,-99.99,,,0.00,Acu-Link.com,2013-07-03 07:51:00,
2013-07-03 03:08:00,59.0,58.4,29.93,SW,225,0.0,-999.0,98,-99.99,,,0.00,Acu-Link.com,2013-07-03 08:08:00,
2013-07-03 03:23:00,59.0,58.4,29.93,SW,225,0.0,-999.0,98,-99.99,,,0.00,Acu-Link.com,2013-07-03 08:23:00,
2013-07-03 03:38:00,59.5,58.6,29.93,SSW,202,2.2,-999.0,97,-99.99,,,0.00,Acu-Link.com,2013-07-03 08:38:00,
2013-07-03 03:53:00,59.4,58.8,29.93,East,90,1.7,-999.0,98,-99.99,,,0.00,Acu-Link.com,2013-07-03 08:53:00,
2013-07-03 04:08:00,59.5,58.6,29.93,SSW,202,0.0,-999.0,97,-99.99,,,0.00,Acu-Link.com,2013-07-03 09:08:00,
2013-07-03 04:24:00,58.6,57.8,29.93,South,180,0.0,-999.0,97,-99.99,,,0.00,Acu-Link.com,2013-07-03 09:24:00,
2013-07-03 04:39:00,58.5,57.9,29.93,SW,225,0.0,-999.0,98,-99.99,,,0.00,Acu-Link.com,2013-07-03 09:39:00,
2013-07-03 04:54:00,58.8,58.2,29.93,WSW,247,0.0,-999.0,98,-99.99,,,0.00,Acu-Link.com,2013-07-03 09:54:00,
2013-07-03 05:24:00,58.6,58.0,29.93,SW,225,0.0,-999.0,98,-99.99,,,0.00,Acu-Link.com,2013-07-03 10:24:00,
2013-07-03 05:39:00,59.4,58.8,29.93,SW,225,0.0,-999.0,98,-99.99,,,0.00,Acu-Link.com,2013-07-03 10:39:00,
2013-07-03 05:55:00,59.7,59.1,29.94,SW,225,0.0,-999.0,98,-99.99,,,0.00,Acu-Link.com,2013-07-03 10:55:00,
2013-07-03 06:10:00,60.6,59.7,29.93,SSW,202,0.0,-999.0,97,-99.99,,,0.00,Acu-Link.com,2013-07-03 11:10:00,
2013-07-03 06:40:00,62.6,61.1,29.95,ESE,112,0.0,-999.0,95,-99.99,,,0.00,Acu-Link.com,2013-07-03 11:40:00,
2013-07-03 06:55:00,66.0,63.9,29.95,SE,135,0.0,-999.0,93,-99.99,,,0.00,Acu-Link.com,2013-07-03 11:55:00,
2013-07-03 07:10:00,69.6,65.2,29.95,SW,225,0.0,-999.0,86,-99.99,,,0.00,Acu-Link.com,2013-07-03 12:10:00,
2013-07-03 07:26:00,73.8,65.4,29.95,South,180,0.0,-999.0,75,-99.99,,,0.00,Acu-Link.com,2013-07-03 12:26:00,
2013-07-03 07:41:00,76.6,66.9,29.96,SSW,202,2.2,-999.0,72,-99.99,,,0.00,Acu-Link.com,2013-07-03 12:41:00,
2013-07-03 07:56:00,77.0,65.6,29.96,SSW,202,1.7,-999.0,68,-99.99,,,0.00,Acu-Link.com,2013-07-03 12:56:00,
2013-07-03 08:11:00,78.1,66.7,29.96,WSW,247,3.7,-999.0,68,-99.99,,,0.00,Acu-Link.com,2013-07-03 13:11:00,
2013-07-03 08:26:00,78.3,66.8,29.97,WSW,247,1.1,-999.0,68,-99.99,,,0.00,Acu-Link.com,2013-07-03 13:26:00,
2013-07-03 08:56:00,82.6,66.3,29.96,SW,225,2.7,-999.0,58,-99.99,,,0.00,Acu-Link.com,2013-07-03 13:56:00,
2013-07-03 09:26:00,84.2,65.2,29.97,West,270,2.7,-999.0,53,-99.99,,,0.00,Acu-Link.com,2013-07-03 14:26:00,
2013-07-03 09:42:00,86.4,66.7,29.96,West,270,1.7,-999.0,52,-99.99,,,0.00,Acu-Link.com,2013-07-03 14:42:00,
2013-07-03 09:57:00,79.3,65.1,29.96,ESE,112,2.7,-999.0,62,-99.99,,,0.00,Acu-Link.com,2013-07-03 14:57:00,
2013-07-03 10:12:00,78.6,64.0,29.95,South,180,2.7,-999.0,61,-99.99,,,0.00,Acu-Link.com,2013-07-03 15:12:00,
2013-07-03 10:42:00,80.4,64.7,29.95,WSW,247,3.2,-999.0,59,-99.99,,,0.00,Acu-Link.com,2013-07-03 15:42:00,
2013-07-03 11:27:00,83.1,66.8,29.94,SW,225,2.7,-999.0,58,-99.99,,,0.00,Acu-Link.com,2013-07-03 16:27:00,
2013-07-03 11:42:00,84.2,67.3,29.94,SSE,157,0.0,-999.0,57,-99.99,,,0.00,Acu-Link.com,2013-07-03 16:42:00,
2013-07-03 11:58:00,84.0,67.6,29.93,SSW,202,4.7,-999.0,58,-99.99,,,0.00,Acu-Link.com,2013-07-03 16:58:00,
2013-07-03 12:13:00,85.1,67.6,29.92,SSW,202,2.7,-999.0,56,-99.99,,,0.00,Acu-Link.com,2013-07-03 17:13:00,
2013-07-03 12:28:00,82.9,66.6,29.93,West,270,2.2,-999.0,58,-99.99,,,0.00,Acu-Link.com,2013-07-03 17:28:00,
2013-07-03 12:43:00,84.9,67.4,29.92,WSW,247,1.7,-999.0,56,-99.99,,,0.00,Acu-Link.com,2013-07-03 17:43:00,
2013-07-03 12:59:00,85.5,67.5,29.92,SSW,202,3.7,-999.0,55,-99.99,,,0.00,Acu-Link.com,2013-07-03 17:59:00,
2013-07-03 13:15:00,86.7,66.4,29.91,South,180,3.7,-999.0,51,-99.99,,,0.00,Acu-Link.com,2013-07-03 18:15:00,
2013-07-03 13:46:00,81.1,64.4,29.91,NE,45,6.8,-999.0,57,-99.99,,,0.00,Acu-Link.com,2013-07-03 18:46:00,
2013-07-03 14:02:00,77.9,64.7,29.91,NE,45,5.8,-999.0,64,-99.99,,,0.00,Acu-Link.com,2013-07-03 19:02:00,
2013-07-03 14:18:00,82.9,65.6,29.90,NE,45,5.8,-999.0,56,-99.99,,,0.00,Acu-Link.com,2013-07-03 19:18:00,
2013-07-03 14:48:00,81.7,65.0,29.90,SE,135,9.4,-999.0,57,-99.99,,,0.00,Acu-Link.com,2013-07-03 19:48:00,
2013-07-03 15:03:00,79.3,64.2,29.90,SE,135,6.3,-999.0,60,-99.99,,,0.00,Acu-Link.com,2013-07-03 20:03:00,
2013-07-03 15:18:00,79.7,66.0,29.90,SSE,157,5.8,-999.0,63,-99.99,,,0.00,Acu-Link.com,2013-07-03 20:18:00,
2013-07-03 15:33:00,79.7,64.6,29.89,NNE,22,2.7,-999.0,60,-99.99,,,0.00,Acu-Link.com,2013-07-03 20:33:00,
2013-07-03 15:48:00,78.1,66.2,29.90,North,0,5.8,-999.0,67,-99.99,,,0.00,Acu-Link.com,2013-07-03 20:48:00,
2013-07-03 16:04:00,77.7,67.1,29.89,North,0,2.7,-999.0,70,-99.99,,,0.00,Acu-Link.com,2013-07-03 21:04:00,
2013-07-03 16:27:00,75.0,66.9,29.88,North,0,7.8,-999.0,76,-99.99,,,0.00,Acu-Link.com,2013-07-03 21:27:00,
2013-07-03 17:00:00,74.8,62.2,29.89,South,180,4.2,-999.0,65,-99.99,,,0.00,Acu-Link.com,2013-07-03 22:00:00,
2013-07-03 17:16:00,74.1,62.4,29.90,ENE,67,3.7,-999.0,67,-99.99,,,0.00,Acu-Link.com,2013-07-03 22:16:00,
2013-07-03 17:35:00,75.0,63.7,29.88,NNW,337,4.7,-999.0,68,-99.99,,,0.00,Acu-Link.com,2013-07-03 22:35:00,
2013-07-03 18:08:00,73.8,65.0,29.89,WNW,292,7.3,-999.0,74,-99.99,,,0.00,Acu-Link.com,2013-07-03 23:08:00,
2013-07-03 18:25:00,69.3,64.9,29.92,South,180,8.3,-999.0,86,-99.99,,,0.00,Acu-Link.com,2013-07-03 23:25:00,
2013-07-03 20:20:00,64.0,62.5,29.91,WNW,292,2.7,-999.0,95,-99.99,,,0.15,Acu-Link.com,2013-07-04 01:20:00,
2013-07-03 20:35:00,63.9,62.1,29.92,West,270,2.7,-999.0,94,-99.99,,,0.15,Acu-Link.com,2013-07-04 01:35:00,
2013-07-03 21:05:00,64.8,60.5,29.92,WNW,292,2.7,-999.0,86,-99.99,,,0.15,Acu-Link.com,2013-07-04 02:05:00,
2013-07-03 21:20:00,64.6,60.0,29.91,WNW,292,1.7,-999.0,85,-99.99,,,0.15,Acu-Link.com,2013-07-04 02:20:00,
2013-07-03 21:51:00,62.8,60.4,29.92,West,270,1.7,-999.0,92,-99.99,,,0.15,Acu-Link.com,2013-07-04 02:51:00,
2013-07-03 22:06:00,62.2,60.7,29.93,South,180,2.7,-999.0,95,-99.99,,,0.15,Acu-Link.com,2013-07-04 03:06:00,
2013-07-03 22:21:00,62.1,60.9,29.92,South,180,2.2,-999.0,96,-99.99,,,0.15,Acu-Link.com,2013-07-04 03:21:00,
2013-07-03 22:36:00,62.4,60.6,29.91,South,180,1.7,-999.0,94,-99.99,,,0.15,Acu-Link.com,2013-07-04 03:36:00,
2013-07-03 22:51:00,62.8,61.0,29.91,SSE,157,3.2,-999.0,94,-99.99,,,0.15,Acu-Link.com,2013-07-04 03:51:00,
2013-07-03 23:06:00,62.8,60.7,29.91,SSE,157,3.2,-999.0,93,-99.99,,,0.15,Acu-Link.com,2013-07-04 04:06:00,
2013-07-03 23:21:00,61.9,60.5,29.90,South,180,5.3,-999.0,95,-99.99,,,0.15,Acu-Link.com,2013-07-04 04:21:00,
2013-07-03 23:36:00,61.3,59.6,29.92,South,180,2.7,-999.0,94,-99.99,,,0.15,Acu-Link.com,2013-07-04 04:36:00,
2013-07-03 23:51:00,60.6,59.5,29.92,West,270,0.0,-999.0,96,-99.99,,,0.15,Acu-Link.com,2013-07-04 04:51:00,